createdAt,value
2019-03-10T00:02:11.782Z,1.70
2019-03-10T00:04:42.971Z,1.90
2019-03-10T00:07:14.261Z,1.70
2019-03-10T00:09:45.493Z,1.90
2019-03-10T00:12:16.689Z,1.77
2019-03-10T00:14:48.300Z,1.47
2019-03-10T00:17:19.665Z,1.60
2019-03-10T00:19:50.904Z,2.00
2019-03-10T00:22:22.796Z,2.10
2019-03-10T00:24:54.052Z,1.47
2019-03-10T00:27:25.316Z,1.70
2019-03-10T00:29:56.944Z,1.62
2019-03-10T00:32:28.491Z,1.62
2019-03-10T00:35:00.416Z,1.70
2019-03-10T00:37:32.025Z,2.05
2019-03-10T00:40:58.043Z,2.17
2019-03-10T00:44:37.698Z,1.80
2019-03-10T00:48:04.494Z,2.02
2019-03-10T00:51:19.262Z,2.22
2019-03-10T00:53:50.358Z,3.27
2019-03-10T00:56:21.614Z,2.92
2019-03-10T00:58:52.831Z,2.50
2019-03-10T01:01:23.987Z,2.45
2019-03-10T01:03:55.121Z,2.45
2019-03-10T01:06:27.391Z,2.10
2019-03-10T01:08:58.632Z,2.20
2019-03-10T01:11:29.791Z,2.55
2019-03-10T01:14:00.970Z,2.58
2019-03-10T01:16:34.137Z,2.45
2019-03-10T01:19:06.045Z,2.58
2019-03-10T01:21:39.439Z,2.27
2019-03-10T01:24:11.327Z,2.45
2019-03-10T01:26:43.647Z,2.65
2019-03-10T01:29:15.098Z,2.33
2019-03-10T01:32:41.139Z,2.00
2019-03-10T01:35:29.274Z,2.92
2019-03-10T01:38:00.865Z,2.55
2019-03-10T01:40:32.422Z,2.60
2019-03-10T01:43:03.978Z,2.62
2019-03-10T01:45:35.127Z,2.50
2019-03-10T01:48:06.378Z,2.30
2019-03-10T01:50:37.600Z,2.62
2019-03-10T01:53:08.786Z,2.40
2019-03-10T01:55:40.414Z,2.20
2019-03-10T01:58:11.585Z,2.17
2019-03-10T02:00:43.001Z,2.45
2019-03-10T02:03:14.067Z,2.00
2019-03-10T02:05:45.077Z,2.50
2019-03-10T02:08:16.535Z,2.33
2019-03-10T02:10:47.812Z,2.60
2019-03-10T02:13:19.094Z,2.47
2019-03-10T02:15:50.256Z,2.27
2019-03-10T02:18:21.694Z,2.77
2019-03-10T02:20:52.853Z,2.27
2019-03-10T02:23:23.964Z,2.27
2019-03-10T02:25:55.113Z,2.47
2019-03-10T02:28:26.341Z,2.67
2019-03-10T02:30:58.672Z,2.83
2019-03-10T02:33:29.863Z,2.22
2019-03-10T02:36:00.904Z,2.60
2019-03-10T02:38:32.106Z,2.77
2019-03-10T02:41:03.166Z,2.20
2019-03-10T02:43:34.377Z,2.42
2019-03-10T02:46:05.539Z,1.95
2019-03-10T02:48:36.595Z,2.20
2019-03-10T02:51:08.207Z,2.58
2019-03-10T02:53:39.693Z,2.42
2019-03-10T02:56:10.848Z,2.90
2019-03-10T02:58:42.208Z,2.30
2019-03-10T03:01:13.471Z,2.92
2019-03-10T03:03:44.563Z,2.37
2019-03-10T03:06:16.097Z,2.75
2019-03-10T03:08:47.205Z,2.70
2019-03-10T03:11:18.371Z,2.22
2019-03-10T03:13:49.652Z,2.42
2019-03-10T03:16:20.828Z,2.60
2019-03-10T03:18:51.902Z,2.22
2019-03-10T03:21:23.085Z,2.67
2019-03-10T03:23:54.365Z,2.37
2019-03-10T03:26:25.517Z,2.90
2019-03-10T03:28:56.751Z,2.50
2019-03-10T03:31:28.270Z,3.02
2019-03-10T03:33:59.437Z,2.72
2019-03-10T03:36:36.667Z,2.50
2019-03-10T03:39:46.728Z,3.10
2019-03-10T03:42:17.941Z,3.00
2019-03-10T03:44:49.123Z,3.02
2019-03-10T03:47:20.340Z,3.00
2019-03-10T03:49:52.235Z,2.77
2019-03-10T03:52:23.375Z,2.77
2019-03-10T03:54:54.623Z,3.58
2019-03-10T03:57:25.684Z,3.25
2019-03-10T03:59:56.943Z,3.12
2019-03-10T04:02:45.505Z,2.70
2019-03-10T04:05:16.702Z,2.62
2019-03-10T04:07:47.871Z,3.40
2019-03-10T04:10:19.471Z,2.70
2019-03-10T04:12:50.790Z,3.15
2019-03-10T04:15:22.050Z,3.45
2019-03-10T04:17:53.224Z,3.12
2019-03-10T04:20:24.354Z,3.25
2019-03-10T04:22:55.509Z,3.37
2019-03-10T04:25:26.696Z,3.37
2019-03-10T04:27:57.847Z,3.40
2019-03-10T04:30:30.884Z,5.25
2019-03-10T04:33:02.227Z,4.22
2019-03-10T04:35:33.502Z,3.15
2019-03-10T04:38:04.705Z,3.00
2019-03-10T04:40:35.884Z,3.60
2019-03-10T04:43:07.154Z,3.30
2019-03-10T04:45:38.422Z,3.40
2019-03-10T04:48:09.433Z,3.33
2019-03-10T04:50:40.686Z,4.17
2019-03-10T04:53:11.810Z,3.60
2019-03-10T04:55:54.288Z,3.55
2019-03-10T04:58:25.691Z,3.67
2019-03-10T05:00:58.021Z,3.60
2019-03-10T05:03:29.174Z,3.42
2019-03-10T05:06:00.911Z,3.75
2019-03-10T05:08:31.999Z,3.80
2019-03-10T05:11:03.159Z,3.75
2019-03-10T05:13:34.418Z,3.47
2019-03-10T05:16:05.684Z,3.75
2019-03-10T05:18:36.707Z,3.90
2019-03-10T05:21:08.487Z,4.35
2019-03-10T05:23:44.337Z,4.00
2019-03-10T05:26:17.230Z,3.20
2019-03-10T05:28:49.300Z,3.20
2019-03-10T05:31:20.893Z,3.33
2019-03-10T05:33:52.025Z,3.12
2019-03-10T05:36:23.300Z,3.42
2019-03-10T05:38:55.487Z,3.10
2019-03-10T05:41:27.061Z,3.60
2019-03-10T05:43:58.934Z,3.10
2019-03-10T05:46:30.056Z,2.92
2019-03-10T05:49:01.498Z,3.60
2019-03-10T05:51:33.071Z,3.50
2019-03-10T05:54:04.295Z,3.40
2019-03-10T05:56:35.459Z,2.67
2019-03-10T05:59:06.604Z,2.33
2019-03-10T06:01:38.827Z,2.98
2019-03-10T06:04:09.937Z,2.80
2019-03-10T06:06:41.450Z,3.25
2019-03-10T06:09:12.459Z,2.50
2019-03-10T06:11:43.646Z,3.08
2019-03-10T06:14:14.817Z,2.62
2019-03-10T06:16:45.946Z,2.90
2019-03-10T06:19:17.019Z,2.75
2019-03-10T06:21:48.134Z,2.92
2019-03-10T06:24:19.216Z,3.12
2019-03-10T06:26:50.277Z,2.70
2019-03-10T06:29:21.280Z,3.30
2019-03-10T06:31:52.677Z,3.15
2019-03-10T06:34:24.734Z,3.65
2019-03-10T06:36:55.879Z,2.58
2019-03-10T06:39:26.949Z,2.67
2019-03-10T06:41:58.143Z,3.05
2019-03-10T06:44:29.152Z,3.47
2019-03-10T06:47:00.703Z,2.90
2019-03-10T06:49:31.851Z,2.95
2019-03-10T06:52:03.147Z,3.02
2019-03-10T06:54:34.239Z,2.80
2019-03-10T06:57:05.489Z,2.85
2019-03-10T06:59:36.782Z,3.47
2019-03-10T07:02:08.538Z,3.27
2019-03-10T07:04:39.886Z,3.72
2019-03-10T07:07:11.442Z,3.30
2019-03-10T07:09:42.553Z,3.15
2019-03-10T07:12:13.843Z,4.17
2019-03-10T07:14:44.871Z,3.12
2019-03-10T07:17:16.419Z,2.98
2019-03-10T07:19:47.871Z,3.10
2019-03-10T07:22:18.971Z,3.50
2019-03-10T07:24:51.030Z,3.72
2019-03-10T07:27:23.518Z,3.95
2019-03-10T07:30:04.762Z,3.98
2019-03-10T07:32:44.637Z,3.60
2019-03-10T07:35:27.390Z,3.35
2019-03-10T07:38:11.589Z,3.62
2019-03-10T07:41:00.598Z,3.60
2019-03-10T07:43:36.647Z,3.75
2019-03-10T07:46:39.138Z,3.90
2019-03-10T07:49:38.167Z,4.05
2019-03-10T07:52:20.515Z,3.75
2019-03-10T07:55:08.763Z,3.40
2019-03-10T07:57:58.158Z,3.65
2019-03-10T08:00:40.887Z,3.90
2019-03-10T08:03:34.236Z,3.40
2019-03-10T08:06:15.068Z,3.62
2019-03-10T08:09:03.669Z,4.45
2019-03-10T08:11:58.608Z,3.98
2019-03-10T08:14:44.803Z,3.22
2019-03-10T08:17:25.365Z,3.05
2019-03-10T08:20:02.311Z,3.55
2019-03-10T08:22:46.542Z,3.45
2019-03-10T08:25:36.261Z,4.00
2019-03-10T08:28:44.155Z,3.12
2019-03-10T08:31:36.367Z,3.08
2019-03-10T08:34:25.425Z,2.50
2019-03-10T08:37:04.918Z,3.55
2019-03-10T08:40:04.300Z,2.90
2019-03-10T08:42:44.594Z,2.10
2019-03-10T08:45:34.909Z,2.37
2019-03-10T08:48:37.260Z,2.58
2019-03-10T08:51:27.711Z,2.90
2019-03-10T08:54:03.903Z,3.15
2019-03-10T08:56:52.858Z,3.37
2019-03-10T08:59:35.781Z,2.85
2019-03-10T09:02:15.571Z,2.67
2019-03-10T09:05:08.694Z,3.08
2019-03-10T09:07:58.879Z,3.30
2019-03-10T09:10:48.911Z,3.12
2019-03-10T09:13:26.647Z,2.65
2019-03-10T09:16:13.672Z,2.77
2019-03-10T09:19:04.115Z,3.17
2019-03-10T09:21:51.245Z,3.60
2019-03-10T09:24:47.218Z,2.80
2019-03-10T09:27:36.629Z,3.33
2019-03-10T09:30:30.501Z,3.17
2019-03-10T09:33:07.547Z,2.90
2019-03-10T09:35:56.671Z,2.45
2019-03-10T09:38:33.673Z,3.00
2019-03-10T09:41:23.754Z,2.80
2019-03-10T09:44:23.182Z,2.65
2019-03-10T09:47:17.843Z,2.80
2019-03-10T09:50:24.573Z,2.65
2019-03-10T09:53:17.514Z,3.12
2019-03-10T09:56:07.781Z,1.80
2019-03-10T09:58:54.899Z,2.12
2019-03-10T10:01:37.269Z,1.80
2019-03-10T10:04:25.206Z,1.10
2019-03-10T10:07:10.077Z,1.42
2019-03-10T10:10:00.527Z,1.22
2019-03-10T10:12:48.314Z,1.00
2019-03-10T10:15:47.953Z,1.10
2019-03-10T10:18:35.582Z,1.07
2019-03-10T10:21:29.229Z,0.70
2019-03-10T10:24:12.796Z,1.00
2019-03-10T10:26:52.501Z,0.45
2019-03-10T10:29:33.459Z,0.70
2019-03-10T10:32:19.162Z,0.72
2019-03-10T10:35:04.173Z,0.50
2019-03-10T10:37:49.824Z,0.40
2019-03-10T10:40:46.087Z,0.37
2019-03-10T10:43:49.000Z,0.50
2019-03-10T10:46:37.685Z,0.30
2019-03-10T10:49:21.727Z,0.33
2019-03-10T10:52:11.849Z,0.35
2019-03-10T10:54:50.669Z,0.40
2019-03-10T10:57:38.573Z,0.30
2019-03-10T11:00:32.183Z,0.60
2019-03-10T11:03:12.439Z,0.30
2019-03-10T11:06:01.643Z,0.50
2019-03-10T11:08:46.254Z,0.40
2019-03-10T11:11:51.926Z,0.70
2019-03-10T11:14:36.871Z,0.50
2019-03-10T11:17:30.119Z,0.60
2019-03-10T11:20:11.286Z,0.40
2019-03-10T11:22:50.648Z,0.50
2019-03-10T11:25:27.633Z,0.60
2019-03-10T11:28:06.873Z,0.57
2019-03-10T11:30:46.002Z,0.30
2019-03-10T11:33:45.551Z,0.40
2019-03-10T11:36:33.332Z,0.20
2019-03-10T11:39:26.323Z,0.30
2019-03-10T11:42:09.172Z,0.25
2019-03-10T11:45:11.392Z,0.30
2019-03-10T11:48:01.777Z,0.40
2019-03-10T11:50:49.196Z,0.50
2019-03-10T11:53:31.567Z,0.33
2019-03-10T11:56:11.058Z,0.60
2019-03-10T11:58:49.468Z,0.20
2019-03-10T12:01:35.026Z,0.60
2019-03-10T12:04:15.229Z,0.55
2019-03-10T12:06:59.587Z,0.50
2019-03-10T12:09:30.835Z,0.78
2019-03-10T12:12:02.093Z,0.70
2019-03-10T12:14:33.729Z,0.70
2019-03-10T12:17:04.888Z,0.82
2019-03-10T12:19:37.350Z,0.42
2019-03-10T12:22:08.548Z,0.40
2019-03-10T12:24:39.736Z,0.60
2019-03-10T12:27:11.194Z,0.42
2019-03-10T12:29:42.640Z,0.30
2019-03-10T12:32:13.723Z,0.20
2019-03-10T12:34:45.002Z,0.47
2019-03-10T12:37:16.087Z,0.57
2019-03-10T12:39:47.216Z,0.33
2019-03-10T12:42:18.213Z,0.42
2019-03-10T12:44:49.411Z,0.37
2019-03-10T12:47:20.567Z,0.23
2019-03-10T12:49:51.610Z,0.60
2019-03-10T12:52:22.796Z,0.40
2019-03-10T12:54:53.980Z,4.42
2019-03-10T12:57:27.168Z,0.20
2019-03-10T12:59:58.281Z,0.30
2019-03-10T13:02:30.678Z,0.25
2019-03-10T13:05:01.869Z,0.23
2019-03-10T13:07:33.364Z,0.42
2019-03-10T13:10:04.578Z,0.50
2019-03-10T13:12:35.728Z,0.50
2019-03-10T13:15:09.679Z,0.57
2019-03-10T13:17:40.928Z,0.47
2019-03-10T13:20:12.150Z,0.42
2019-03-10T13:22:43.288Z,0.40
2019-03-10T13:25:14.915Z,0.30
2019-03-10T13:27:47.148Z,0.40
2019-03-10T13:30:18.420Z,0.50
2019-03-10T13:32:50.936Z,0.70
2019-03-10T13:35:22.312Z,0.57
2019-03-10T13:37:53.477Z,0.50
2019-03-10T13:40:25.387Z,0.60
2019-03-10T13:42:56.595Z,0.42
2019-03-10T13:45:28.290Z,0.50
2019-03-10T13:47:59.885Z,0.50
2019-03-10T13:50:31.058Z,0.50
2019-03-10T13:53:02.536Z,0.40
2019-03-10T13:55:33.822Z,0.37
2019-03-10T13:58:04.968Z,0.30
2019-03-10T14:00:36.175Z,0.35
2019-03-10T14:03:07.422Z,0.40
2019-03-10T14:05:38.867Z,0.30
2019-03-10T14:08:10.125Z,0.20
2019-03-10T14:10:41.659Z,0.40
2019-03-10T14:13:12.891Z,0.50
2019-03-10T14:15:44.659Z,0.50
2019-03-10T14:18:15.835Z,0.70
2019-03-10T14:20:47.500Z,0.70
2019-03-10T14:23:18.660Z,0.30
2019-03-10T14:25:50.132Z,0.40
2019-03-10T14:28:22.227Z,0.50
2019-03-10T14:30:53.728Z,0.40
2019-03-10T14:33:24.991Z,0.57
2019-03-10T14:35:56.572Z,0.40
2019-03-10T14:38:27.817Z,0.50
2019-03-10T14:40:59.375Z,0.30
2019-03-10T14:43:30.469Z,0.55
2019-03-10T14:46:02.048Z,0.40
2019-03-10T14:48:34.833Z,0.72
2019-03-10T14:51:06.093Z,0.33
2019-03-10T14:53:37.235Z,0.50
2019-03-10T14:56:08.787Z,0.60
2019-03-10T14:58:40.027Z,0.70
2019-03-10T15:01:11.276Z,0.40
2019-03-10T15:03:42.461Z,0.78
2019-03-10T15:06:14.624Z,0.42
2019-03-10T15:08:46.548Z,0.53
2019-03-10T15:11:17.916Z,0.70
2019-03-10T15:13:49.063Z,0.75
2019-03-10T15:16:21.473Z,0.50
2019-03-10T15:18:52.640Z,0.50
2019-03-10T15:21:24.072Z,0.80
2019-03-10T15:23:55.238Z,0.65
2019-03-10T15:26:26.808Z,0.90
2019-03-10T15:28:57.968Z,0.60
2019-03-10T15:31:29.155Z,0.65
2019-03-10T15:34:00.475Z,0.82
2019-03-10T15:36:32.188Z,0.60
2019-03-10T15:39:03.828Z,0.90
2019-03-10T15:41:36.742Z,0.57
2019-03-10T15:44:08.000Z,0.65
2019-03-10T15:46:39.172Z,0.82
2019-03-10T15:49:10.338Z,0.70
2019-03-10T15:51:41.459Z,0.40
2019-03-10T15:54:12.636Z,0.60
2019-03-10T15:56:43.852Z,0.50
2019-03-10T15:59:15.008Z,0.60
2019-03-10T16:01:46.210Z,0.70
2019-03-10T16:04:22.783Z,0.65
2019-03-10T16:06:54.922Z,0.90
2019-03-10T16:09:26.083Z,0.95
2019-03-10T16:11:57.360Z,1.12
2019-03-10T16:14:28.658Z,0.80
2019-03-10T16:17:00.046Z,0.70
2019-03-10T16:19:31.560Z,0.80
2019-03-10T16:22:02.678Z,0.88
2019-03-10T16:24:33.851Z,1.12
2019-03-10T16:27:05.041Z,0.95
2019-03-10T16:29:36.230Z,0.90
2019-03-10T16:32:08.908Z,0.80
2019-03-10T16:34:40.068Z,0.85
2019-03-10T16:37:11.186Z,1.00
2019-03-10T16:39:42.757Z,0.90
2019-03-10T16:42:14.492Z,1.35
2019-03-10T16:44:45.660Z,1.20
2019-03-10T16:47:16.992Z,1.20
2019-03-10T16:49:48.071Z,1.95
2019-03-10T16:52:19.321Z,1.20
2019-03-10T16:54:50.727Z,1.40
2019-03-10T16:57:22.069Z,1.07
2019-03-10T16:59:53.127Z,0.90
2019-03-10T17:02:24.130Z,0.95
2019-03-10T17:04:55.400Z,1.27
2019-03-10T17:07:26.749Z,1.95
2019-03-10T17:09:57.910Z,1.40
2019-03-10T17:12:29.449Z,1.27
2019-03-10T17:15:00.666Z,1.22
2019-03-10T17:17:31.878Z,1.47
2019-03-10T17:20:03.009Z,1.50
2019-03-10T17:22:35.194Z,1.40
2019-03-10T17:25:07.109Z,1.50
2019-03-10T17:27:38.297Z,1.52
2019-03-10T17:30:14.841Z,1.10
2019-03-10T17:32:46.413Z,2.08
2019-03-10T17:35:18.227Z,1.15
2019-03-10T17:37:49.950Z,1.47
2019-03-10T17:40:21.288Z,1.62
2019-03-10T17:42:53.236Z,1.25
2019-03-10T17:45:24.702Z,1.20
2019-03-10T17:47:57.347Z,1.10
2019-03-10T17:50:28.599Z,1.52
2019-03-10T17:52:59.873Z,1.37
2019-03-10T17:55:31.044Z,1.27
2019-03-10T17:58:02.937Z,1.32
2019-03-10T18:00:34.955Z,1.07
2019-03-10T18:03:06.649Z,1.20
2019-03-10T18:05:38.295Z,1.85
2019-03-10T18:08:09.604Z,1.20
2019-03-10T18:10:41.108Z,1.45
2019-03-10T18:13:12.744Z,1.50
2019-03-10T18:15:44.610Z,0.72
2019-03-10T18:18:15.984Z,1.20
2019-03-10T18:20:47.400Z,0.95
2019-03-10T18:23:18.688Z,0.93
2019-03-10T18:25:49.877Z,0.93
2019-03-10T18:28:21.309Z,0.60
2019-03-10T18:30:52.794Z,0.57
2019-03-10T18:33:24.336Z,0.50
2019-03-10T18:35:55.409Z,0.50
2019-03-10T18:38:26.742Z,0.40
2019-03-10T18:40:57.971Z,0.75
2019-03-10T18:43:29.234Z,0.40
2019-03-10T18:46:00.867Z,0.30
2019-03-10T18:48:34.199Z,0.50
2019-03-10T18:51:05.726Z,0.40
2019-03-10T18:53:37.389Z,0.45
2019-03-10T18:56:09.209Z,0.50
2019-03-10T18:58:40.521Z,0.35
2019-03-10T19:01:11.673Z,0.30
2019-03-10T19:03:42.958Z,0.20
2019-03-10T19:06:14.214Z,0.30
2019-03-10T19:08:45.434Z,0.37
2019-03-10T19:11:16.565Z,0.60
2019-03-10T19:13:47.756Z,0.40
2019-03-10T19:16:20.403Z,0.60
2019-03-10T19:18:51.524Z,0.40
2019-03-10T19:21:22.834Z,0.53
2019-03-10T19:23:53.875Z,0.30
2019-03-10T19:26:25.043Z,0.53
2019-03-10T19:28:56.183Z,0.30
2019-03-10T19:31:27.251Z,0.47
2019-03-10T19:33:58.522Z,0.55
2019-03-10T19:36:29.767Z,0.50
2019-03-10T19:39:02.014Z,0.70
2019-03-10T19:41:34.847Z,0.78
2019-03-10T19:44:06.102Z,0.62
2019-03-10T19:46:38.500Z,0.47
2019-03-10T19:49:09.617Z,0.60
2019-03-10T19:51:40.822Z,0.50
2019-03-10T19:54:12.266Z,0.50
2019-03-10T19:56:43.424Z,0.60
2019-03-10T19:59:14.674Z,0.50
2019-03-10T20:01:46.088Z,0.40
2019-03-10T20:04:18.869Z,0.60
2019-03-10T20:06:49.933Z,0.42
2019-03-10T20:09:21.119Z,0.30
2019-03-10T20:11:52.523Z,0.40
2019-03-10T20:14:23.721Z,0.60
2019-03-10T20:16:54.884Z,0.50
2019-03-10T20:19:26.464Z,0.60
2019-03-10T20:21:57.531Z,0.50
2019-03-10T20:24:28.789Z,0.50
2019-03-10T20:26:59.983Z,0.57
2019-03-10T20:29:31.527Z,0.35
2019-03-10T20:32:13.157Z,0.50
2019-03-10T20:34:35.708Z,0.50
2019-03-10T20:37:06.862Z,0.65
2019-03-10T20:39:37.916Z,0.50
2019-03-10T20:42:09.027Z,0.30
2019-03-10T20:44:40.207Z,0.33
2019-03-10T20:47:11.370Z,0.50
2019-03-10T20:49:42.391Z,0.40
2019-03-10T20:52:13.905Z,0.40
2019-03-10T20:54:45.006Z,0.40
2019-03-10T20:57:16.094Z,0.50
2019-03-10T20:59:47.224Z,0.50
2019-03-10T21:02:18.384Z,0.57
2019-03-10T21:04:49.428Z,0.57
2019-03-10T21:07:20.557Z,0.40
2019-03-10T21:09:51.673Z,0.40
2019-03-10T21:12:23.103Z,0.50
2019-03-10T21:14:54.799Z,0.30
2019-03-10T21:17:26.320Z,0.47
2019-03-10T21:19:57.507Z,0.37
2019-03-10T21:22:28.519Z,0.60
2019-03-10T21:24:59.630Z,0.30
2019-03-10T21:27:30.901Z,0.40
2019-03-10T21:30:02.015Z,0.30
2019-03-10T21:32:33.377Z,0.40
2019-03-10T21:35:04.963Z,0.30
2019-03-10T21:37:36.185Z,0.30
2019-03-10T21:40:09.502Z,0.30
2019-03-10T21:42:40.905Z,0.50
2019-03-10T21:45:12.644Z,0.45
2019-03-10T21:47:43.949Z,0.40
2019-03-10T21:50:15.594Z,0.30
2019-03-10T21:52:47.019Z,0.30
2019-03-10T21:55:18.329Z,0.30
2019-03-10T21:57:50.950Z,0.20
2019-03-10T22:00:22.741Z,0.30
2019-03-10T22:02:53.892Z,0.30
2019-03-10T22:05:25.158Z,0.20
2019-03-10T22:07:56.317Z,0.20
2019-03-10T22:10:28.169Z,0.33
2019-03-10T22:13:01.013Z,0.30
2019-03-10T22:15:41.078Z,0.35
2019-03-10T22:18:06.318Z,0.40
2019-03-10T22:20:37.585Z,0.37
2019-03-10T22:23:09.173Z,0.50
2019-03-10T22:25:40.210Z,0.47
2019-03-10T22:28:11.382Z,0.50
2019-03-10T22:30:42.501Z,0.50
2019-03-10T22:33:13.638Z,0.55
2019-03-10T22:35:44.839Z,0.50
2019-03-10T22:38:15.933Z,0.50
2019-03-10T22:40:47.108Z,0.50
2019-03-10T22:43:18.293Z,0.50
2019-03-10T22:45:49.875Z,0.60
2019-03-10T22:48:20.877Z,0.90
2019-03-10T22:50:52.080Z,0.70
2019-03-10T22:53:23.942Z,0.80
2019-03-10T22:55:55.109Z,0.70
2019-03-10T22:58:26.212Z,0.60
2019-03-10T23:00:58.958Z,0.40
2019-03-10T23:03:30.383Z,0.30
2019-03-10T23:06:01.420Z,0.65
2019-03-10T23:08:32.596Z,0.50
2019-03-10T23:11:03.706Z,0.30
2019-03-10T23:13:34.836Z,0.40
2019-03-10T23:16:07.184Z,0.70
2019-03-10T23:18:38.383Z,0.68
2019-03-10T23:21:09.645Z,0.65
2019-03-10T23:23:40.898Z,0.60
2019-03-10T23:26:12.471Z,0.65
2019-03-10T23:28:43.955Z,0.40
2019-03-10T23:31:14.982Z,0.40
2019-03-10T23:33:47.133Z,0.55
2019-03-10T23:36:18.317Z,0.47
2019-03-10T23:38:49.681Z,0.45
2019-03-10T23:41:21.786Z,0.53
2019-03-10T23:43:52.885Z,0.60
2019-03-10T23:46:24.300Z,0.70
2019-03-10T23:48:55.639Z,0.60
2019-03-10T23:51:26.817Z,0.40
2019-03-10T23:53:58.330Z,0.55
2019-03-10T23:56:29.363Z,0.47
2019-03-10T23:59:00.654Z,1.22
